sensor_id;sensor_type;location;lat;lon;timestamp;pressure;altitude;pressure_sealevel;temperature;humidity
79799;BME280;69283;48.024;11.090;2023-07-16T00:00:46;95113.81;;;22.01;65.23
79799;BME280;69283;48.024;11.090;2023-07-16T00:03:11;95104.34;;;22.02;65.17
79799;BME280;69283;48.024;11.090;2023-07-16T00:05:37;95113.53;;;21.95;65.47
79799;BME280;69283;48.024;11.090;2023-07-16T00:08:03;95115.88;;;21.97;65.09
79799;BME280;69283;48.024;11.090;2023-07-16T00:10:29;95118.56;;;22.00;65.12
79799;BME280;69283;48.024;11.090;2023-07-16T00:12:54;95120.53;;;22.00;65.00
79799;BME280;69283;48.024;11.090;2023-07-16T00:15:19;95131.22;;;21.98;64.83
79799;BME280;69283;48.024;11.090;2023-07-16T00:17:45;95145.56;;;21.85;65.73
79799;BME280;69283;48.024;11.090;2023-07-16T00:20:10;95170.56;;;21.71;66.55
79799;BME280;69283;48.024;11.090;2023-07-16T00:22:36;95178.84;;;21.71;66.55
79799;BME280;69283;48.024;11.090;2023-07-16T00:25:04;95193.09;;;21.66;66.53
79799;BME280;69283;48.024;11.090;2023-07-16T00:27:30;95209.63;;;21.66;66.73
79799;BME280;69283;48.024;11.090;2023-07-16T00:29:55;95219.94;;;21.59;67.38
79799;BME280;69283;48.024;11.090;2023-07-16T00:32:20;95227.09;;;21.52;67.28
79799;BME280;69283;48.024;11.090;2023-07-16T00:34:46;95244.88;;;21.48;67.30
79799;BME280;69283;48.024;11.090;2023-07-16T00:37:11;95252.75;;;21.46;67.42
79799;BME280;69283;48.024;11.090;2023-07-16T00:39:36;95270.16;;;21.36;68.02
79799;BME280;69283;48.024;11.090;2023-07-16T00:42:02;95278.50;;;21.29;68.05
79799;BME280;69283;48.024;11.090;2023-07-16T00:44:27;95283.28;;;21.17;68.51
79799;BME280;69283;48.024;11.090;2023-07-16T00:46:52;95291.16;;;21.15;68.69
79799;BME280;69283;48.024;11.090;2023-07-16T00:49:18;95297.50;;;21.12;68.69
79799;BME280;69283;48.024;11.090;2023-07-16T00:51:43;95300.22;;;21.16;68.54
79799;BME280;69283;48.024;11.090;2023-07-16T00:54:09;95306.88;;;21.18;68.39
79799;BME280;69283;48.024;11.090;2023-07-16T00:56:37;95307.25;;;21.20;68.58
79799;BME280;69283;48.024;11.090;2023-07-16T00:59:02;95304.53;;;21.24;68.55
79799;BME280;69283;48.024;11.090;2023-07-16T01:01:28;95313.19;;;21.22;68.19
79799;BME280;69283;48.024;11.090;2023-07-16T01:03:56;95313.97;;;21.19;68.49
79799;BME280;69283;48.024;11.090;2023-07-16T01:09:07;95321.03;;;21.20;68.51
79799;BME280;69283;48.024;11.090;2023-07-16T01:11:34;95323.41;;;21.25;68.23
79799;BME280;69283;48.024;11.090;2023-07-16T01:14:01;95326.53;;;21.28;68.24
79799;BME280;69283;48.024;11.090;2023-07-16T01:16:27;95331.69;;;21.25;68.03
79799;BME280;69283;48.024;11.090;2023-07-16T01:18:52;95342.66;;;21.29;68.13
79799;BME280;69283;48.024;11.090;2023-07-16T01:21:20;95338.31;;;21.32;68.09
79799;BME280;69283;48.024;11.090;2023-07-16T01:29:54;95362.75;;;21.30;68.15
79799;BME280;69283;48.024;11.090;2023-07-16T01:32:21;95356.41;;;21.33;67.79
79799;BME280;69283;48.024;11.090;2023-07-16T01:34:48;95369.00;;;21.34;68.11
79799;BME280;69283;48.024;11.090;2023-07-16T01:37:14;95369.00;;;21.34;68.26
79799;BME280;69283;48.024;11.090;2023-07-16T01:39:39;95370.53;;;21.38;68.22
79799;BME280;69283;48.024;11.090;2023-07-16T01:42:05;95374.47;;;21.41;67.64
79799;BME280;69283;48.024;11.090;2023-07-16T01:44:30;95369.72;;;21.45;67.98
79799;BME280;69283;48.024;11.090;2023-07-16T01:47:06;95365.84;;;21.35;68.64
79799;BME280;69283;48.024;11.090;2023-07-16T01:49:32;95356.38;;;21.36;68.49
79799;BME280;69283;48.024;11.090;2023-07-16T01:52:00;95371.69;;;21.44;68.15
79799;BME280;69283;48.024;11.090;2023-07-16T01:54:26;95363.41;;;21.48;67.92
79799;BME280;69283;48.024;11.090;2023-07-16T01:56:51;95361.88;;;21.40;68.83
79799;BME280;69283;48.024;11.090;2023-07-16T01:59:16;95371.31;;;21.39;68.94
79799;BME280;69283;48.024;11.090;2023-07-16T02:01:42;95367.44;;;21.33;68.70
79799;BME280;69283;48.024;11.090;2023-07-16T02:04:07;95372.94;;;21.33;69.05
79799;BME280;69283;48.024;11.090;2023-07-16T02:06:32;95364.28;;;21.34;68.77
79799;BME280;69283;48.024;11.090;2023-07-16T02:08:58;95368.22;;;21.33;68.74
79799;BME280;69283;48.024;11.090;2023-07-16T02:11:23;95372.13;;;21.36;68.71
79799;BME280;69283;48.024;11.090;2023-07-16T02:13:48;95364.69;;;21.33;68.65
79799;BME280;69283;48.024;11.090;2023-07-16T02:16:13;95361.59;;;21.23;68.41
79799;BME280;69283;48.024;11.090;2023-07-16T02:18:39;95360.81;;;21.19;68.98
79799;BME280;69283;48.024;11.090;2023-07-16T02:21:04;95369.88;;;21.16;69.35
79799;BME280;69283;48.024;11.090;2023-07-16T02:23:29;95372.69;;;21.09;69.20
79799;BME280;69283;48.024;11.090;2023-07-16T02:25:55;95380.56;;;21.11;69.54
79799;BME280;69283;48.024;11.090;2023-07-16T02:28:20;95383.28;;;21.14;69.56
79799;BME280;69283;48.024;11.090;2023-07-16T02:30:45;95380.13;;;21.12;69.89
79799;BME280;69283;48.024;11.090;2023-07-16T02:33:10;95375.38;;;21.16;69.76
79799;BME280;69283;48.024;11.090;2023-07-16T02:35:36;95380.13;;;21.16;70.03
79799;BME280;69283;48.024;11.090;2023-07-16T02:38:01;95376.94;;;21.17;69.85
79799;BME280;69283;48.024;11.090;2023-07-16T02:40:26;95382.84;;;21.19;69.77
79799;BME280;69283;48.024;11.090;2023-07-16T02:42:52;95377.75;;;21.18;70.27
79799;BME280;69283;48.024;11.090;2023-07-16T02:45:17;95373.38;;;21.20;70.41
79799;BME280;69283;48.024;11.090;2023-07-16T02:47:42;95384.81;;;21.19;70.00
79799;BME280;69283;48.024;11.090;2023-07-16T02:50:08;95383.22;;;21.21;70.24
79799;BME280;69283;48.024;11.090;2023-07-16T02:52:34;95374.56;;;21.19;70.36
79799;BME280;69283;48.024;11.090;2023-07-16T02:54:59;95386.41;;;21.16;70.82
79799;BME280;69283;48.024;11.090;2023-07-16T02:57:24;95389.59;;;21.11;70.73
79799;BME280;69283;48.024;11.090;2023-07-16T02:59:50;95395.88;;;21.15;70.60
79799;BME280;69283;48.024;11.090;2023-07-16T03:02:15;95400.59;;;21.15;70.65
79799;BME280;69283;48.024;11.090;2023-07-16T03:04:40;95409.22;;;21.17;70.91
79799;BME280;69283;48.024;11.090;2023-07-16T03:07:06;95408.06;;;21.14;70.65
79799;BME280;69283;48.024;11.090;2023-07-16T03:09:32;95401.34;;;21.19;70.36
79799;BME280;69283;48.024;11.090;2023-07-16T03:11:57;95400.63;;;21.11;70.87
79799;BME280;69283;48.024;11.090;2023-07-16T03:14:22;95402.16;;;21.16;70.63
79799;BME280;69283;48.024;11.090;2023-07-16T03:16:48;95408.47;;;21.13;70.05
79799;BME280;69283;48.024;11.090;2023-07-16T03:19:13;95414.00;;;21.09;70.39
79799;BME280;69283;48.024;11.090;2023-07-16T03:21:38;95414.00;;;21.09;70.25
79799;BME280;69283;48.024;11.090;2023-07-16T03:24:04;95412.84;;;21.07;70.46
79799;BME280;69283;48.024;11.090;2023-07-16T03:26:29;95420.34;;;21.03;70.53
79799;BME280;69283;48.024;11.090;2023-07-16T03:28:54;95429.00;;;21.05;70.54
79799;BME280;69283;48.024;11.090;2023-07-16T03:31:20;95441.56;;;21.02;71.14
79799;BME280;69283;48.024;11.090;2023-07-16T03:33:45;95457.31;;;21.02;72.29
79799;BME280;69283;48.024;11.090;2023-07-16T03:36:11;95466.44;;;20.88;73.07
79799;BME280;69283;48.024;11.090;2023-07-16T03:38:36;95462.16;;;20.73;75.09
79799;BME280;69283;48.024;11.090;2023-07-16T03:41:01;95475.22;;;20.47;75.59
79799;BME280;69283;48.024;11.090;2023-07-16T03:43:27;95466.19;;;20.29;76.52
79799;BME280;69283;48.024;11.090;2023-07-16T03:45:52;95478.00;;;20.26;76.42
79799;BME280;69283;48.024;11.090;2023-07-16T03:48:17;95479.53;;;20.20;77.41
79799;BME280;69283;48.024;11.090;2023-07-16T03:50:43;95481.13;;;20.24;77.24
79799;BME280;69283;48.024;11.090;2023-07-16T03:53:08;95483.88;;;20.21;77.46
79799;BME280;69283;48.024;11.090;2023-07-16T03:55:33;95481.94;;;20.07;77.90
79799;BME280;69283;48.024;11.090;2023-07-16T03:57:59;95484.28;;;19.84;78.21
79799;BME280;69283;48.024;11.090;2023-07-16T04:00:24;95474.06;;;19.66;78.03
79799;BME280;69283;48.024;11.090;2023-07-16T04:02:49;95472.88;;;19.64;77.76
79799;BME280;69283;48.024;11.090;2023-07-16T04:05:15;95481.88;;;19.54;77.85
79799;BME280;69283;48.024;11.090;2023-07-16T04:07:40;95486.59;;;19.57;77.79
79799;BME280;69283;48.024;11.090;2023-07-16T04:10:06;95481.88;;;19.54;78.24
79799;BME280;69283;48.024;11.090;2023-07-16T04:12:31;95490.91;;;19.58;77.23
79799;BME280;69283;48.024;11.090;2023-07-16T04:14:58;95489.75;;;19.55;77.29
79799;BME280;69283;48.024;11.090;2023-07-16T04:17:24;95495.22;;;19.44;77.60
79799;BME280;69283;48.024;11.090;2023-07-16T04:19:49;95503.81;;;19.39;77.49
79799;BME280;69283;48.024;11.090;2023-07-16T04:22:15;95503.81;;;19.39;77.45
79799;BME280;69283;48.024;11.090;2023-07-16T04:24:40;95502.63;;;19.37;77.68
79799;BME280;69283;48.024;11.090;2023-07-16T04:27:05;95506.53;;;19.32;77.89
79799;BME280;69283;48.024;11.090;2023-07-16T04:29:31;95489.66;;;19.27;77.66
79799;BME280;69283;48.024;11.090;2023-07-16T04:31:56;95492.81;;;19.25;77.61
79799;BME280;69283;48.024;11.090;2023-07-16T04:34:21;95499.03;;;19.19;78.42
79799;BME280;69283;48.024;11.090;2023-07-16T04:36:46;95499.09;;;19.26;78.06
79799;BME280;69283;48.024;11.090;2023-07-16T04:39:12;95497.91;;;19.23;78.62
79799;BME280;69283;48.024;11.090;2023-07-16T04:41:37;95507.69;;;19.21;79.12
79799;BME280;69283;48.024;11.090;2023-07-16T04:44:03;95509.69;;;19.27;78.71
79799;BME280;69283;48.024;11.090;2023-07-16T04:46:28;95504.94;;;19.21;78.93
79799;BME280;69283;48.024;11.090;2023-07-16T04:48:55;95511.63;;;19.23;79.25
79799;BME280;69283;48.024;11.090;2023-07-16T04:51:20;95512.81;;;19.22;78.58
79799;BME280;69283;48.024;11.090;2023-07-16T04:53:45;95514.75;;;19.22;79.18
79799;BME280;69283;48.024;11.090;2023-07-16T04:56:12;95520.22;;;19.18;79.25
79799;BME280;69283;48.024;11.090;2023-07-16T04:58:37;95526.09;;;19.13;80.26
79799;BME280;69283;48.024;11.090;2023-07-16T05:01:03;95531.19;;;19.07;81.29
79799;BME280;69283;48.024;11.090;2023-07-16T05:03:28;95524.13;;;19.06;81.16
79799;BME280;69283;48.024;11.090;2023-07-16T05:05:53;95520.59;;;19.09;80.50
79799;BME280;69283;48.024;11.090;2023-07-16T05:08:19;95526.09;;;19.06;80.18
79799;BME280;69283;48.024;11.090;2023-07-16T05:10:44;95515.13;;;19.13;80.23
79799;BME280;69283;48.024;11.090;2023-07-16T05:13:10;95514.31;;;19.12;80.46
79799;BME280;69283;48.024;11.090;2023-07-16T05:15:37;95516.28;;;19.15;80.89
79799;BME280;69283;48.024;11.090;2023-07-16T05:18:02;95521.00;;;19.19;80.67
79799;BME280;69283;48.024;11.090;2023-07-16T05:20:27;95532.78;;;19.12;81.69
79799;BME280;69283;48.024;11.090;2023-07-16T05:22:53;95540.69;;;19.24;81.07
79799;BME280;69283;48.024;11.090;2023-07-16T05:25:18;95543.03;;;19.29;80.88
79799;BME280;69283;48.024;11.090;2023-07-16T05:27:43;95539.50;;;19.25;79.39
79799;BME280;69283;48.024;11.090;2023-07-16T05:30:09;95538.28;;;19.19;79.92
79799;BME280;69283;48.024;11.090;2023-07-16T05:32:35;95548.81;;;19.03;80.13
79799;BME280;69283;48.024;11.090;2023-07-16T05:35:01;95551.50;;;18.92;81.27
79799;BME280;69283;48.024;11.090;2023-07-16T05:37:26;95557.00;;;18.96;81.70
79799;BME280;69283;48.024;11.090;2023-07-16T05:39:51;95552.38;;;19.07;81.17
79799;BME280;69283;48.024;11.090;2023-07-16T05:42:17;95558.28;;;19.12;81.04
79799;BME280;69283;48.024;11.090;2023-07-16T05:44:42;95559.50;;;19.26;80.53
79799;BME280;69283;48.024;11.090;2023-07-16T05:47:09;95546.97;;;19.35;79.73
79799;BME280;69283;48.024;11.090;2023-07-16T05:49:34;95552.47;;;19.32;80.37
79799;BME280;69283;48.024;11.090;2023-07-16T05:52:00;95557.56;;;19.26;81.49
79799;BME280;69283;48.024;11.090;2023-07-16T05:54:25;95565.00;;;19.26;81.17
79799;BME280;69283;48.024;11.090;2023-07-16T05:56:50;95556.41;;;19.34;81.00
79799;BME280;69283;48.024;11.090;2023-07-16T05:59:16;95554.84;;;19.40;81.56
79799;BME280;69283;48.024;11.090;2023-07-16T06:01:41;95563.13;;;19.48;81.24
79799;BME280;69283;48.024;11.090;2023-07-16T06:04:06;95563.53;;;19.53;81.30
79799;BME280;69283;48.024;11.090;2023-07-16T06:06:32;95565.13;;;19.54;80.94
79799;BME280;69283;48.024;11.090;2023-07-16T06:08:57;95583.22;;;19.62;80.56
79799;BME280;69283;48.024;11.090;2023-07-16T06:11:22;95580.47;;;19.66;81.78
79799;BME280;69283;48.024;11.090;2023-07-16T06:13:48;95586.78;;;19.70;81.36
79799;BME280;69283;48.024;11.090;2023-07-16T06:16:13;95580.88;;;19.82;80.01
79799;BME280;69283;48.024;11.090;2023-07-16T06:18:38;95579.34;;;19.88;79.19
79799;BME280;69283;48.024;11.090;2023-07-16T06:21:03;95570.72;;;19.93;78.94
79799;BME280;69283;48.024;11.090;2023-07-16T06:23:29;95571.53;;;20.04;79.25
79799;BME280;69283;48.024;11.090;2023-07-16T06:25:55;95575.44;;;20.18;78.98
79799;BME280;69283;48.024;11.090;2023-07-16T06:28:20;95566.41;;;20.35;78.04
79799;BME280;69283;48.024;11.090;2023-07-16T06:30:45;95569.16;;;20.35;78.70
79799;BME280;69283;48.024;11.090;2023-07-16T06:33:11;95586.50;;;20.50;79.04
79799;BME280;69283;48.024;11.090;2023-07-16T06:35:36;95580.97;;;20.53;76.75
79799;BME280;69283;48.024;11.090;2023-07-16T06:38:02;95580.97;;;20.68;76.05
79799;BME280;69283;48.024;11.090;2023-07-16T06:40:28;95584.91;;;20.70;76.40
79799;BME280;69283;48.024;11.090;2023-07-16T06:42:57;95584.13;;;20.70;76.60
79799;BME280;69283;48.024;11.090;2023-07-16T06:45:22;95590.03;;;20.68;76.63
79799;BME280;69283;48.024;11.090;2023-07-16T06:47:48;95582.53;;;20.69;77.54
79799;BME280;69283;48.024;11.090;2023-07-16T06:50:13;95582.16;;;20.63;77.42
79799;BME280;69283;48.024;11.090;2023-07-16T06:52:39;95589.63;;;20.62;78.24
79799;BME280;69283;48.024;11.090;2023-07-16T06:55:04;95595.53;;;20.57;78.12
79799;BME280;69283;48.024;11.090;2023-07-16T06:57:30;95586.09;;;20.58;78.96
79799;BME280;69283;48.024;11.090;2023-07-16T06:59:55;95590.44;;;20.49;78.82
79799;BME280;69283;48.024;11.090;2023-07-16T07:02:20;95599.06;;;20.54;78.56
79799;BME280;69283;48.024;11.090;2023-07-16T07:04:46;95587.25;;;20.72;75.81
79799;BME280;69283;48.024;11.090;2023-07-16T07:07:11;95596.31;;;20.83;74.88
79799;BME280;69283;48.024;11.090;2023-07-16T07:09:36;95585.66;;;20.81;74.10
79799;BME280;69283;48.024;11.090;2023-07-16T07:12:02;95587.63;;;20.84;73.48
79799;BME280;69283;48.024;11.090;2023-07-16T07:14:27;95585.69;;;20.85;74.14
79799;BME280;69283;48.024;11.090;2023-07-16T07:16:53;95588.81;;;20.87;74.08
79799;BME280;69283;48.024;11.090;2023-07-16T07:19:18;95585.66;;;20.81;74.62
79799;BME280;69283;48.024;11.090;2023-07-16T07:21:43;95583.31;;;20.80;74.01
79799;BME280;69283;48.024;11.090;2023-07-16T07:24:09;95572.69;;;20.75;72.42
79799;BME280;69283;48.024;11.090;2023-07-16T07:26:34;95584.88;;;20.74;73.17
79799;BME280;69283;48.024;11.090;2023-07-16T07:28:59;95584.09;;;20.73;72.74
79799;BME280;69283;48.024;11.090;2023-07-16T07:31:25;95584.91;;;20.67;71.43
79799;BME280;69283;48.024;11.090;2023-07-16T07:33:50;95579.78;;;20.76;71.55
79799;BME280;69283;48.024;11.090;2023-07-16T07:36:15;95584.88;;;20.84;71.34
79799;BME280;69283;48.024;11.090;2023-07-16T07:38:41;95590.34;;;21.02;70.97
79799;BME280;69283;48.024;11.090;2023-07-16T07:41:06;95589.16;;;21.00;70.54
79799;BME280;69283;48.024;11.090;2023-07-16T07:43:31;95584.44;;;21.07;69.10
79799;BME280;69283;48.024;11.090;2023-07-16T07:45:57;95591.94;;;21.03;68.20
79799;BME280;69283;48.024;11.090;2023-07-16T07:48:22;95583.31;;;20.83;69.07
79799;BME280;69283;48.024;11.090;2023-07-16T07:50:47;95586.41;;;20.96;68.90
79799;BME280;69283;48.024;11.090;2023-07-16T07:53:13;95585.59;;;21.10;67.82
79799;BME280;69283;48.024;11.090;2023-07-16T07:55:40;95581.63;;;21.29;67.72
79799;BME280;69283;48.024;11.090;2023-07-16T07:58:05;95573.75;;;21.31;67.53
79799;BME280;69283;48.024;11.090;2023-07-16T08:00:30;95565.41;;;21.52;64.84
79799;BME280;69283;48.024;11.090;2023-07-16T08:02:56;95562.13;;;21.71;66.08
79799;BME280;69283;48.024;11.090;2023-07-16T08:05:21;95552.91;;;21.96;65.51
79799;BME280;69283;48.024;11.090;2023-07-16T08:07:47;95555.19;;;22.15;65.00
79799;BME280;69283;48.024;11.090;2023-07-16T08:10:12;95559.19;;;22.07;63.57
79799;BME280;69283;48.024;11.090;2023-07-16T08:12:38;95549.72;;;22.01;62.47
79799;BME280;69283;48.024;11.090;2023-07-16T08:15:03;95556.44;;;22.07;62.15
79799;BME280;69283;48.024;11.090;2023-07-16T08:17:29;95560.44;;;21.92;63.74
79799;BME280;69283;48.024;11.090;2023-07-16T08:19:54;95555.66;;;21.99;63.96
79799;BME280;69283;48.024;11.090;2023-07-16T08:22:19;95560.78;;;21.97;62.14
79799;BME280;69283;48.024;11.090;2023-07-16T08:24:45;95552.53;;;21.94;62.84
79799;BME280;69283;48.024;11.090;2023-07-16T08:27:10;95554.88;;;21.99;63.36
79799;BME280;69283;48.024;11.090;2023-07-16T08:29:36;95548.63;;;21.91;63.55
79799;BME280;69283;48.024;11.090;2023-07-16T08:32:02;95553.81;;;21.78;64.19
79799;BME280;69283;48.024;11.090;2023-07-16T08:34:28;95556.97;;;21.77;64.33
79799;BME280;69283;48.024;11.090;2023-07-16T08:36:53;95558.63;;;21.67;63.37
79799;BME280;69283;48.024;11.090;2023-07-16T08:39:18;95561.00;;;21.65;64.65
79799;BME280;69283;48.024;11.090;2023-07-16T08:41:45;95554.31;;;21.59;64.70
79799;BME280;69283;48.024;11.090;2023-07-16T08:44:12;95546.44;;;21.65;65.06
79799;BME280;69283;48.024;11.090;2023-07-16T08:46:38;95544.50;;;21.54;63.34
79799;BME280;69283;48.024;11.090;2023-07-16T08:49:05;95555.88;;;21.60;63.22
79799;BME280;69283;48.024;11.090;2023-07-16T08:51:31;95560.97;;;21.69;61.86
79799;BME280;69283;48.024;11.090;2023-07-16T08:53:57;95558.25;;;21.65;61.31
79799;BME280;69283;48.024;11.090;2023-07-16T08:56:22;95563.31;;;21.74;60.22
79799;BME280;69283;48.024;11.090;2023-07-16T08:58:49;95568.72;;;21.92;60.80
79799;BME280;69283;48.024;11.090;2023-07-16T09:01:14;95561.59;;;21.94;60.10
79799;BME280;69283;48.024;11.090;2023-07-16T09:03:42;95565.41;;;22.18;61.90
79799;BME280;69283;48.024;11.090;2023-07-16T09:06:07;95556.78;;;22.12;59.91
79799;BME280;69283;48.024;11.090;2023-07-16T09:08:33;95558.81;;;22.05;60.07
79799;BME280;69283;48.024;11.090;2023-07-16T09:10:58;95546.41;;;22.27;59.95
79799;BME280;69283;48.024;11.090;2023-07-16T09:13:24;95551.13;;;22.30;59.24
79799;BME280;69283;48.024;11.090;2023-07-16T09:15:58;95551.91;;;22.31;58.53
79799;BME280;69283;48.024;11.090;2023-07-16T09:18:26;95549.88;;;22.38;58.22
79799;BME280;69283;48.024;11.090;2023-07-16T09:20:55;95543.06;;;22.50;58.96
79799;BME280;69283;48.024;11.090;2023-07-16T09:23:26;95537.44;;;22.61;57.32
79799;BME280;69283;48.024;11.090;2023-07-16T09:25:54;95535.41;;;22.68;57.33
79799;BME280;69283;48.024;11.090;2023-07-16T09:28:20;95541.28;;;22.70;55.50
79799;BME280;69283;48.024;11.090;2023-07-16T09:30:47;95538.94;;;22.69;53.08
79799;BME280;69283;48.024;11.090;2023-07-16T09:35:39;95549.44;;;22.40;55.73
79799;BME280;69283;48.024;11.090;2023-07-16T09:38:04;95546.38;;;22.31;56.43
79799;BME280;69283;48.024;11.090;2023-07-16T09:40:31;95545.28;;;22.21;56.30
79799;BME280;69283;48.024;11.090;2023-07-16T09:42:57;95536.81;;;22.46;56.22
79799;BME280;69283;48.024;11.090;2023-07-16T09:45:22;95539.41;;;22.60;55.59
79799;BME280;69283;48.024;11.090;2023-07-16T09:47:48;95533.72;;;22.78;54.36
79799;BME280;69283;48.024;11.090;2023-07-16T09:50:13;95536.03;;;22.87;54.55
79799;BME280;69283;48.024;11.090;2023-07-16T09:52:39;95529.13;;;23.05;54.42
79799;BME280;69283;48.024;11.090;2023-07-16T09:55:08;95536.00;;;23.24;53.85
79799;BME280;69283;48.024;11.090;2023-07-16T09:57:35;95534.75;;;23.29;52.39
79799;BME280;69283;48.024;11.090;2023-07-16T10:00:09;95540.38;;;22.88;51.78
79799;BME280;69283;48.024;11.090;2023-07-16T10:02:38;95537.25;;;22.82;51.26
79799;BME280;69283;48.024;11.090;2023-07-16T10:05:27;95536.13;;;23.14;51.38
79799;BME280;69283;48.024;11.090;2023-07-16T10:07:57;95524.44;;;23.33;48.88
79799;BME280;69283;48.024;11.090;2023-07-16T10:10:52;95526.56;;;23.52;49.31
79799;BME280;69283;48.024;11.090;2023-07-16T10:13:22;95520.00;;;23.39;50.55
79799;BME280;69283;48.024;11.090;2023-07-16T10:15:56;95520.38;;;23.41;47.65
79799;BME280;69283;48.024;11.090;2023-07-16T10:18:28;95521.50;;;23.47;48.54
79799;BME280;69283;48.024;11.090;2023-07-16T10:21:03;95527.88;;;23.44;48.60
79799;BME280;69283;48.024;11.090;2023-07-16T10:23:37;95524.63;;;23.49;48.35
79799;BME280;69283;48.024;11.090;2023-07-16T10:26:05;95523.63;;;23.66;48.37
79799;BME280;69283;48.024;11.090;2023-07-16T10:28:32;95531.41;;;23.75;48.48
79799;BME280;69283;48.024;11.090;2023-07-16T10:30:58;95523.38;;;23.84;50.13
79799;BME280;69283;48.024;11.090;2023-07-16T10:33:23;95524.25;;;23.78;50.58
79799;BME280;69283;48.024;11.090;2023-07-16T10:35:49;95525.41;;;23.80;50.29
79799;BME280;69283;48.024;11.090;2023-07-16T10:38:14;95524.19;;;23.81;50.92
79799;BME280;69283;48.024;11.090;2023-07-16T10:40:41;95521.59;;;23.97;51.27
79799;BME280;69283;48.024;11.090;2023-07-16T10:43:07;95523.94;;;23.99;51.04
79799;BME280;69283;48.024;11.090;2023-07-16T10:45:32;95525.69;;;23.89;51.33
79799;BME280;69283;48.024;11.090;2023-07-16T10:47:58;95519.41;;;23.85;51.80
79799;BME280;69283;48.024;11.090;2023-07-16T10:50:23;95518.47;;;23.69;50.72
79799;BME280;69283;48.024;11.090;2023-07-16T10:52:56;95514.81;;;23.75;50.88
79799;BME280;69283;48.024;11.090;2023-07-16T10:55:23;95517.41;;;23.59;49.80
79799;BME280;69283;48.024;11.090;2023-07-16T10:57:49;95516.13;;;23.67;50.13
79799;BME280;69283;48.024;11.090;2023-07-16T11:00:16;95506.28;;;23.62;50.65
79799;BME280;69283;48.024;11.090;2023-07-16T11:02:42;95500.56;;;23.77;50.84
79799;BME280;69283;48.024;11.090;2023-07-16T11:05:11;95506.03;;;23.80;49.55
79799;BME280;69283;48.024;11.090;2023-07-16T11:07:37;95512.88;;;23.99;50.76
79799;BME280;69283;48.024;11.090;2023-07-16T11:10:02;95509.03;;;24.16;50.30
79799;BME280;69283;48.024;11.090;2023-07-16T11:12:28;95505.84;;;24.45;49.90
79799;BME280;69283;48.024;11.090;2023-07-16T11:14:54;95508.13;;;24.50;48.92
79799;BME280;69283;48.024;11.090;2023-07-16T11:17:22;95504.22;;;24.47;48.50
79799;BME280;69283;48.024;11.090;2023-07-16T11:19:51;95498.84;;;24.37;48.90
79799;BME280;69283;48.024;11.090;2023-07-16T11:22:16;95497.78;;;24.31;48.72
79799;BME280;69283;48.024;11.090;2023-07-16T11:27:18;95500.88;;;24.56;47.43
79799;BME280;69283;48.024;11.090;2023-07-16T11:29:57;95491.28;;;24.61;46.45
79799;BME280;69283;48.024;11.090;2023-07-16T11:32:42;95495.88;;;24.71;45.58
79799;BME280;69283;48.024;11.090;2023-07-16T11:35:10;95491.63;;;24.86;46.47
79799;BME280;69283;48.024;11.090;2023-07-16T11:37:40;95497.56;;;25.08;45.11
79799;BME280;69283;48.024;11.090;2023-07-16T11:40:07;95492.56;;;25.19;43.98
79799;BME280;69283;48.024;11.090;2023-07-16T11:42:38;95472.50;;;24.92;44.00
79799;BME280;69283;48.024;11.090;2023-07-16T11:45:05;95477.19;;;24.95;45.27
79799;BME280;69283;48.024;11.090;2023-07-16T11:47:31;95470.41;;;24.99;44.93
79799;BME280;69283;48.024;11.090;2023-07-16T11:49:57;95475.94;;;24.99;44.56
79799;BME280;69283;48.024;11.090;2023-07-16T11:52:27;95472.31;;;25.02;44.46
79799;BME280;69283;48.024;11.090;2023-07-16T11:54:55;95482.56;;;25.05;46.32
79799;BME280;69283;48.024;11.090;2023-07-16T11:57:20;95483.28;;;25.09;46.42
79799;BME280;69283;48.024;11.090;2023-07-16T11:59:46;95471.50;;;25.05;46.64
79799;BME280;69283;48.024;11.090;2023-07-16T12:02:12;95467.50;;;25.06;47.53
79799;BME280;69283;48.024;11.090;2023-07-16T12:04:37;95470.56;;;25.12;45.93
79799;BME280;69283;48.024;11.090;2023-07-16T12:07:03;95477.84;;;25.22;46.97
79799;BME280;69283;48.024;11.090;2023-07-16T12:09:28;95471.81;;;25.27;46.34
79799;BME280;69283;48.024;11.090;2023-07-16T12:11:54;95468.47;;;25.36;46.55
79799;BME280;69283;48.024;11.090;2023-07-16T12:14:20;95467.16;;;25.40;46.92
79799;BME280;69283;48.024;11.090;2023-07-16T12:16:45;95475.00;;;25.45;46.73
79799;BME280;69283;48.024;11.090;2023-07-16T12:19:11;95477.78;;;25.45;47.01
79799;BME280;69283;48.024;11.090;2023-07-16T12:21:36;95469.03;;;25.47;47.52
79799;BME280;69283;48.024;11.090;2023-07-16T12:24:02;95471.78;;;25.47;47.70
79799;BME280;69283;48.024;11.090;2023-07-16T12:26:28;95475.88;;;25.59;47.13
79799;BME280;69283;48.024;11.090;2023-07-16T12:28:53;95467.63;;;25.55;47.75
79799;BME280;69283;48.024;11.090;2023-07-16T12:31:19;95463.81;;;25.69;47.28
79799;BME280;69283;48.024;11.090;2023-07-16T12:33:45;95464.25;;;25.67;46.51
79799;BME280;69283;48.024;11.090;2023-07-16T12:36:12;95466.75;;;25.78;46.55
79799;BME280;69283;48.024;11.090;2023-07-16T12:38:37;95462.53;;;25.90;46.18
79799;BME280;69283;48.024;11.090;2023-07-16T12:41:03;95457.56;;;25.97;45.91
79799;BME280;69283;48.024;11.090;2023-07-16T12:43:36;95458.44;;;26.11;48.14
79799;BME280;69283;48.024;11.090;2023-07-16T12:46:03;95455.31;;;26.25;47.10
79799;BME280;69283;48.024;11.090;2023-07-16T12:48:29;95453.84;;;26.20;48.71
79799;BME280;69283;48.024;11.090;2023-07-16T12:50:55;95459.13;;;26.15;48.56
79799;BME280;69283;48.024;11.090;2023-07-16T12:53:20;95455.06;;;26.03;48.00
79799;BME280;69283;48.024;11.090;2023-07-16T12:55:45;95457.84;;;26.03;46.68
79799;BME280;69283;48.024;11.090;2023-07-16T12:58:11;95458.97;;;25.89;45.41